sensor_id;sensor_type;location;lat;lon;timestamp;temperature;humidity
13992;DHT22;7070;53.586;9.692;2023-06-04T00:01:05;11.10;63.20
13992;DHT22;7070;53.586;9.692;2023-06-04T00:03:33;11.00;63.20
13992;DHT22;7070;53.586;9.692;2023-06-04T00:06:00;11.00;63.50
13992;DHT22;7070;53.586;9.692;2023-06-04T00:08:27;10.90;63.50
13992;DHT22;7070;53.586;9.692;2023-06-04T00:10:55;10.90;63.70
13992;DHT22;7070;53.586;9.692;2023-06-04T00:13:22;10.90;63.70
13992;DHT22;7070;53.586;9.692;2023-06-04T00:15:49;10.80;64.40
13992;DHT22;7070;53.586;9.692;2023-06-04T00:18:16;10.80;63.80
13992;DHT22;7070;53.586;9.692;2023-06-04T00:20:43;10.70;63.80
13992;DHT22;7070;53.586;9.692;2023-06-04T00:23:10;10.70;63.90
13992;DHT22;7070;53.586;9.692;2023-06-04T00:25:37;10.70;64.00
13992;DHT22;7070;53.586;9.692;2023-06-04T00:28:06;10.70;64.10
13992;DHT22;7070;53.586;9.692;2023-06-04T00:30:33;10.70;64.20
13992;DHT22;7070;53.586;9.692;2023-06-04T00:33:01;10.60;64.40
13992;DHT22;7070;53.586;9.692;2023-06-04T00:35:27;10.60;64.60
13992;DHT22;7070;53.586;9.692;2023-06-04T00:37:54;10.60;64.90
13992;DHT22;7070;53.586;9.692;2023-06-04T00:40:21;10.60;65.00
13992;DHT22;7070;53.586;9.692;2023-06-04T00:42:48;10.50;65.10
13992;DHT22;7070;53.586;9.692;2023-06-04T00:45:16;10.50;65.10
13992;DHT22;7070;53.586;9.692;2023-06-04T00:47:45;10.50;65.00
13992;DHT22;7070;53.586;9.692;2023-06-04T00:50:13;10.50;65.00
13992;DHT22;7070;53.586;9.692;2023-06-04T00:52:40;10.50;65.10
13992;DHT22;7070;53.586;9.692;2023-06-04T00:55:08;10.50;65.10
13992;DHT22;7070;53.586;9.692;2023-06-04T00:57:37;10.40;64.90
13992;DHT22;7070;53.586;9.692;2023-06-04T01:00:06;10.30;64.60
13992;DHT22;7070;53.586;9.692;2023-06-04T01:02:35;10.30;64.60
13992;DHT22;7070;53.586;9.692;2023-06-04T01:05:09;10.30;64.60
13992;DHT22;7070;53.586;9.692;2023-06-04T01:07:38;10.20;64.60
13992;DHT22;7070;53.586;9.692;2023-06-04T01:10:11;10.20;64.70
13992;DHT22;7070;53.586;9.692;2023-06-04T01:12:39;10.10;64.70
13992;DHT22;7070;53.586;9.692;2023-06-04T01:15:07;10.10;64.90
13992;DHT22;7070;53.586;9.692;2023-06-04T01:17:39;10.00;64.90
13992;DHT22;7070;53.586;9.692;2023-06-04T01:20:22;9.90;66.10
13992;DHT22;7070;53.586;9.692;2023-06-04T01:23:02;9.90;66.20
13992;DHT22;7070;53.586;9.692;2023-06-04T01:25:33;9.80;66.40
13992;DHT22;7070;53.586;9.692;2023-06-04T01:28:01;9.80;66.60
13992;DHT22;7070;53.586;9.692;2023-06-04T01:30:30;9.70;66.50
13992;DHT22;7070;53.586;9.692;2023-06-04T01:32:59;9.60;66.50
13992;DHT22;7070;53.586;9.692;2023-06-04T01:35:27;9.60;66.60
13992;DHT22;7070;53.586;9.692;2023-06-04T01:37:55;9.50;66.60
13992;DHT22;7070;53.586;9.692;2023-06-04T01:40:23;9.50;66.80
13992;DHT22;7070;53.586;9.692;2023-06-04T01:42:50;9.50;66.90
13992;DHT22;7070;53.586;9.692;2023-06-04T01:45:17;9.40;66.90
13992;DHT22;7070;53.586;9.692;2023-06-04T01:47:44;9.40;67.10
13992;DHT22;7070;53.586;9.692;2023-06-04T01:50:12;9.30;67.20
13992;DHT22;7070;53.586;9.692;2023-06-04T01:52:40;9.30;67.30
13992;DHT22;7070;53.586;9.692;2023-06-04T01:55:09;9.30;67.60
13992;DHT22;7070;53.586;9.692;2023-06-04T01:57:37;9.20;67.60
13992;DHT22;7070;53.586;9.692;2023-06-04T02:00:06;9.20;67.80
13992;DHT22;7070;53.586;9.692;2023-06-04T02:02:35;9.20;67.90
13992;DHT22;7070;53.586;9.692;2023-06-04T02:05:03;9.10;67.90
13992;DHT22;7070;53.586;9.692;2023-06-04T02:07:34;9.10;68.00
13992;DHT22;7070;53.586;9.692;2023-06-04T02:10:04;9.00;68.10
13992;DHT22;7070;53.586;9.692;2023-06-04T02:12:31;9.00;68.30
13992;DHT22;7070;53.586;9.692;2023-06-04T02:14:58;9.00;68.50
13992;DHT22;7070;53.586;9.692;2023-06-04T02:17:25;9.00;68.60
13992;DHT22;7070;53.586;9.692;2023-06-04T02:19:52;8.90;68.70
13992;DHT22;7070;53.586;9.692;2023-06-04T02:22:19;8.90;68.90
13992;DHT22;7070;53.586;9.692;2023-06-04T02:24:48;8.90;69.10
13992;DHT22;7070;53.586;9.692;2023-06-04T02:27:15;8.80;69.20
13992;DHT22;7070;53.586;9.692;2023-06-04T02:29:41;8.80;69.30
13992;DHT22;7070;53.586;9.692;2023-06-04T02:32:09;8.80;69.40
13992;DHT22;7070;53.586;9.692;2023-06-04T02:34:35;8.80;69.40
13992;DHT22;7070;53.586;9.692;2023-06-04T02:37:03;8.80;69.40
13992;DHT22;7070;53.586;9.692;2023-06-04T02:39:30;8.80;69.50
13992;DHT22;7070;53.586;9.692;2023-06-04T02:41:58;8.80;69.40
13992;DHT22;7070;53.586;9.692;2023-06-04T02:44:25;8.80;69.50
13992;DHT22;7070;53.586;9.692;2023-06-04T02:46:52;8.70;70.20
13992;DHT22;7070;53.586;9.692;2023-06-04T02:49:19;8.70;69.50
13992;DHT22;7070;53.586;9.692;2023-06-04T02:51:46;8.70;69.50
13992;DHT22;7070;53.586;9.692;2023-06-04T02:54:12;8.60;69.70
13992;DHT22;7070;53.586;9.692;2023-06-04T02:56:39;8.60;69.80
13992;DHT22;7070;53.586;9.692;2023-06-04T02:59:07;8.60;70.00
13992;DHT22;7070;53.586;9.692;2023-06-04T03:01:35;8.60;69.90
13992;DHT22;7070;53.586;9.692;2023-06-04T03:04:02;8.60;70.00
13992;DHT22;7070;53.586;9.692;2023-06-04T03:06:30;8.60;70.10
13992;DHT22;7070;53.586;9.692;2023-06-04T03:08:57;8.50;70.20
13992;DHT22;7070;53.586;9.692;2023-06-04T03:11:26;8.50;70.20
13992;DHT22;7070;53.586;9.692;2023-06-04T03:13:53;8.50;70.20
13992;DHT22;7070;53.586;9.692;2023-06-04T03:16:22;8.50;70.40
13992;DHT22;7070;53.586;9.692;2023-06-04T03:18:49;8.50;70.70
13992;DHT22;7070;53.586;9.692;2023-06-04T03:21:15;8.50;71.70
13992;DHT22;7070;53.586;9.692;2023-06-04T03:23:43;8.50;71.00
13992;DHT22;7070;53.586;9.692;2023-06-04T03:26:10;8.60;71.10
13992;DHT22;7070;53.586;9.692;2023-06-04T03:28:38;8.50;71.10
13992;DHT22;7070;53.586;9.692;2023-06-04T03:31:05;8.50;71.10
13992;DHT22;7070;53.586;9.692;2023-06-04T03:33:33;8.60;71.20
13992;DHT22;7070;53.586;9.692;2023-06-04T03:36:00;8.60;71.00
13992;DHT22;7070;53.586;9.692;2023-06-04T03:38:28;8.60;71.10
13992;DHT22;7070;53.586;9.692;2023-06-04T03:40:55;8.60;71.10
13992;DHT22;7070;53.586;9.692;2023-06-04T03:43:22;8.70;71.20
13992;DHT22;7070;53.586;9.692;2023-06-04T03:45:48;8.60;71.20
13992;DHT22;7070;53.586;9.692;2023-06-04T03:48:15;8.60;71.20
13992;DHT22;7070;53.586;9.692;2023-06-04T03:50:43;8.60;71.10
13992;DHT22;7070;53.586;9.692;2023-06-04T03:53:11;8.60;71.10
13992;DHT22;7070;53.586;9.692;2023-06-04T03:55:38;8.70;71.30
13992;DHT22;7070;53.586;9.692;2023-06-04T03:58:05;8.70;71.40
13992;DHT22;7070;53.586;9.692;2023-06-04T04:00:34;8.70;71.50
13992;DHT22;7070;53.586;9.692;2023-06-04T04:03:01;8.70;71.50
13992;DHT22;7070;53.586;9.692;2023-06-04T04:05:28;8.70;71.50
13992;DHT22;7070;53.586;9.692;2023-06-04T04:07:56;8.70;71.60
13992;DHT22;7070;53.586;9.692;2023-06-04T04:10:23;8.80;71.70
13992;DHT22;7070;53.586;9.692;2023-06-04T04:12:50;8.70;71.70
13992;DHT22;7070;53.586;9.692;2023-06-04T04:15:20;8.80;72.50
13992;DHT22;7070;53.586;9.692;2023-06-04T04:17:47;8.90;72.10
13992;DHT22;7070;53.586;9.692;2023-06-04T04:20:14;9.00;72.30
13992;DHT22;7070;53.586;9.692;2023-06-04T04:22:41;9.00;72.40
13992;DHT22;7070;53.586;9.692;2023-06-04T04:25:10;9.00;72.50
13992;DHT22;7070;53.586;9.692;2023-06-04T04:27:37;9.20;72.70
13992;DHT22;7070;53.586;9.692;2023-06-04T04:30:07;9.10;72.70
13992;DHT22;7070;53.586;9.692;2023-06-04T04:32:34;9.30;73.20
13992;DHT22;7070;53.586;9.692;2023-06-04T04:35:04;9.50;73.80
13992;DHT22;7070;53.586;9.692;2023-06-04T04:37:33;9.60;74.10
13992;DHT22;7070;53.586;9.692;2023-06-04T04:40:06;9.80;74.30
13992;DHT22;7070;53.586;9.692;2023-06-04T04:42:36;10.10;73.30
13992;DHT22;7070;53.586;9.692;2023-06-04T04:45:03;10.30;73.30
13992;DHT22;7070;53.586;9.692;2023-06-04T04:47:31;10.60;73.40
13992;DHT22;7070;53.586;9.692;2023-06-04T04:49:58;10.80;73.30
13992;DHT22;7070;53.586;9.692;2023-06-04T04:52:25;11.10;73.20
13992;DHT22;7070;53.586;9.692;2023-06-04T04:54:51;11.30;73.00
13992;DHT22;7070;53.586;9.692;2023-06-04T04:57:21;11.50;72.90
13992;DHT22;7070;53.586;9.692;2023-06-04T04:59:49;11.80;72.70
13992;DHT22;7070;53.586;9.692;2023-06-04T05:02:16;12.00;72.40
13992;DHT22;7070;53.586;9.692;2023-06-04T05:04:43;12.20;72.20
13992;DHT22;7070;53.586;9.692;2023-06-04T05:07:10;12.40;72.20
13992;DHT22;7070;53.586;9.692;2023-06-04T05:09:36;12.60;72.20
13992;DHT22;7070;53.586;9.692;2023-06-04T05:12:04;12.80;71.90
13992;DHT22;7070;53.586;9.692;2023-06-04T05:14:31;13.00;71.60
13992;DHT22;7070;53.586;9.692;2023-06-04T05:16:59;13.20;72.10
13992;DHT22;7070;53.586;9.692;2023-06-04T05:19:26;13.30;71.00
13992;DHT22;7070;53.586;9.692;2023-06-04T05:21:53;13.50;71.00
13992;DHT22;7070;53.586;9.692;2023-06-04T05:24:20;13.60;71.00
13992;DHT22;7070;53.586;9.692;2023-06-04T05:26:47;13.80;70.70
13992;DHT22;7070;53.586;9.692;2023-06-04T05:29:14;13.90;70.40
13992;DHT22;7070;53.586;9.692;2023-06-04T05:31:42;14.10;69.90
13992;DHT22;7070;53.586;9.692;2023-06-04T05:34:10;14.20;69.60
13992;DHT22;7070;53.586;9.692;2023-06-04T05:36:42;14.40;69.30
13992;DHT22;7070;53.586;9.692;2023-06-04T05:39:09;14.40;68.80
13992;DHT22;7070;53.586;9.692;2023-06-04T05:41:36;14.50;68.50
13992;DHT22;7070;53.586;9.692;2023-06-04T05:44:03;14.60;68.40
13992;DHT22;7070;53.586;9.692;2023-06-04T05:46:30;14.70;68.20
13992;DHT22;7070;53.586;9.692;2023-06-04T05:48:57;14.80;68.20
13992;DHT22;7070;53.586;9.692;2023-06-04T05:51:25;14.80;68.00
13992;DHT22;7070;53.586;9.692;2023-06-04T05:53:52;14.90;68.10
13992;DHT22;7070;53.586;9.692;2023-06-04T05:56:19;15.10;68.40
13992;DHT22;7070;53.586;9.692;2023-06-04T05:58:51;15.20;68.10
13992;DHT22;7070;53.586;9.692;2023-06-04T06:01:18;15.30;67.30
13992;DHT22;7070;53.586;9.692;2023-06-04T06:03:45;15.50;66.90
13992;DHT22;7070;53.586;9.692;2023-06-04T06:06:12;15.60;66.40
13992;DHT22;7070;53.586;9.692;2023-06-04T06:08:40;15.60;66.10
13992;DHT22;7070;53.586;9.692;2023-06-04T06:11:07;15.60;65.90
13992;DHT22;7070;53.586;9.692;2023-06-04T06:13:34;15.70;65.80
13992;DHT22;7070;53.586;9.692;2023-06-04T06:16:01;15.80;65.60
13992;DHT22;7070;53.586;9.692;2023-06-04T06:18:28;15.80;65.20
13992;DHT22;7070;53.586;9.692;2023-06-04T06:20:56;15.90;65.00
13992;DHT22;7070;53.586;9.692;2023-06-04T06:23:22;16.00;64.90
13992;DHT22;7070;53.586;9.692;2023-06-04T06:25:51;16.00;64.30
13992;DHT22;7070;53.586;9.692;2023-06-04T06:28:17;16.10;63.90
13992;DHT22;7070;53.586;9.692;2023-06-04T06:30:44;16.20;63.60
13992;DHT22;7070;53.586;9.692;2023-06-04T06:33:12;16.10;63.20
13992;DHT22;7070;53.586;9.692;2023-06-04T06:35:39;16.10;63.30
13992;DHT22;7070;53.586;9.692;2023-06-04T06:38:06;16.20;63.40
13992;DHT22;7070;53.586;9.692;2023-06-04T06:40:33;16.20;63.90
13992;DHT22;7070;53.586;9.692;2023-06-04T06:43:01;16.20;63.20
13992;DHT22;7070;53.586;9.692;2023-06-04T06:45:28;16.20;63.10
13992;DHT22;7070;53.586;9.692;2023-06-04T06:47:55;16.30;63.00
13992;DHT22;7070;53.586;9.692;2023-06-04T06:50:22;16.30;63.10
13992;DHT22;7070;53.586;9.692;2023-06-04T06:52:49;16.30;62.80
13992;DHT22;7070;53.586;9.692;2023-06-04T06:55:16;16.50;62.80
13992;DHT22;7070;53.586;9.692;2023-06-04T06:57:43;16.50;62.70
13992;DHT22;7070;53.586;9.692;2023-06-04T07:00:13;16.50;62.80
13992;DHT22;7070;53.586;9.692;2023-06-04T07:02:41;16.60;62.70
13992;DHT22;7070;53.586;9.692;2023-06-04T07:05:08;16.70;62.60
13992;DHT22;7070;53.586;9.692;2023-06-04T07:07:36;16.70;62.60
13992;DHT22;7070;53.586;9.692;2023-06-04T07:10:03;16.80;62.40
13992;DHT22;7070;53.586;9.692;2023-06-04T07:12:30;16.80;62.20
13992;DHT22;7070;53.586;9.692;2023-06-04T07:14:57;16.90;62.10
13992;DHT22;7070;53.586;9.692;2023-06-04T07:17:25;17.00;62.10
13992;DHT22;7070;53.586;9.692;2023-06-04T07:19:52;17.00;61.90
13992;DHT22;7070;53.586;9.692;2023-06-04T07:22:19;17.00;61.70
13992;DHT22;7070;53.586;9.692;2023-06-04T07:24:46;17.00;61.50
13992;DHT22;7070;53.586;9.692;2023-06-04T07:27:13;17.10;61.50
13992;DHT22;7070;53.586;9.692;2023-06-04T07:29:43;17.10;61.40
13992;DHT22;7070;53.586;9.692;2023-06-04T07:32:10;17.10;61.50
13992;DHT22;7070;53.586;9.692;2023-06-04T07:34:39;17.10;61.40
13992;DHT22;7070;53.586;9.692;2023-06-04T07:37:06;17.10;61.30
13992;DHT22;7070;53.586;9.692;2023-06-04T07:39:34;17.10;60.90
13992;DHT22;7070;53.586;9.692;2023-06-04T07:42:03;17.00;60.80
13992;DHT22;7070;53.586;9.692;2023-06-04T07:44:31;17.10;61.20
13992;DHT22;7070;53.586;9.692;2023-06-04T07:46:57;17.00;60.80
13992;DHT22;7070;53.586;9.692;2023-06-04T07:49:24;17.10;60.50
13992;DHT22;7070;53.586;9.692;2023-06-04T07:51:53;17.10;60.40
13992;DHT22;7070;53.586;9.692;2023-06-04T07:54:20;17.10;60.20
13992;DHT22;7070;53.586;9.692;2023-06-04T07:56:47;17.20;59.70
13992;DHT22;7070;53.586;9.692;2023-06-04T07:59:14;17.20;59.50
13992;DHT22;7070;53.586;9.692;2023-06-04T08:01:41;17.30;59.40
13992;DHT22;7070;53.586;9.692;2023-06-04T08:04:07;17.30;59.40
13992;DHT22;7070;53.586;9.692;2023-06-04T08:06:34;17.40;59.10
13992;DHT22;7070;53.586;9.692;2023-06-04T08:09:02;17.30;58.90
13992;DHT22;7070;53.586;9.692;2023-06-04T08:11:29;17.50;59.20
13992;DHT22;7070;53.586;9.692;2023-06-04T08:13:56;17.50;59.00
13992;DHT22;7070;53.586;9.692;2023-06-04T08:16:23;17.60;58.90
13992;DHT22;7070;53.586;9.692;2023-06-04T08:18:50;17.70;58.40
13992;DHT22;7070;53.586;9.692;2023-06-04T08:21:25;17.70;58.20
13992;DHT22;7070;53.586;9.692;2023-06-04T08:23:52;17.80;58.30
13992;DHT22;7070;53.586;9.692;2023-06-04T08:26:20;17.80;58.10
13992;DHT22;7070;53.586;9.692;2023-06-04T08:28:48;17.80;58.30
13992;DHT22;7070;53.586;9.692;2023-06-04T08:31:15;17.90;58.50
13992;DHT22;7070;53.586;9.692;2023-06-04T08:33:42;17.90;58.70
13992;DHT22;7070;53.586;9.692;2023-06-04T08:36:09;18.00;58.70
13992;DHT22;7070;53.586;9.692;2023-06-04T08:38:36;18.00;58.80
13992;DHT22;7070;53.586;9.692;2023-06-04T08:41:08;18.10;59.00
13992;DHT22;7070;53.586;9.692;2023-06-04T08:43:38;18.10;59.00
13992;DHT22;7070;53.586;9.692;2023-06-04T08:46:05;18.10;58.80
13992;DHT22;7070;53.586;9.692;2023-06-04T08:48:34;18.20;58.60
13992;DHT22;7070;53.586;9.692;2023-06-04T08:51:02;18.30;58.60
13992;DHT22;7070;53.586;9.692;2023-06-04T08:53:30;18.30;58.50
13992;DHT22;7070;53.586;9.692;2023-06-04T08:55:58;18.40;58.50
13992;DHT22;7070;53.586;9.692;2023-06-04T08:58:26;18.40;58.00
13992;DHT22;7070;53.586;9.692;2023-06-04T09:00:55;18.50;58.00
13992;DHT22;7070;53.586;9.692;2023-06-04T09:03:22;18.50;57.40
13992;DHT22;7070;53.586;9.692;2023-06-04T09:05:50;18.60;58.00
13992;DHT22;7070;53.586;9.692;2023-06-04T09:08:19;18.50;57.30
13992;DHT22;7070;53.586;9.692;2023-06-04T09:10:48;18.60;57.60
13992;DHT22;7070;53.586;9.692;2023-06-04T09:13:17;18.60;57.30
13992;DHT22;7070;53.586;9.692;2023-06-04T09:15:45;18.70;57.50
13992;DHT22;7070;53.586;9.692;2023-06-04T09:18:13;18.70;57.60
13992;DHT22;7070;53.586;9.692;2023-06-04T09:20:40;18.70;57.70
13992;DHT22;7070;53.586;9.692;2023-06-04T09:23:13;18.80;57.50
13992;DHT22;7070;53.586;9.692;2023-06-04T09:25:42;18.90;57.30
13992;DHT22;7070;53.586;9.692;2023-06-04T09:28:10;18.90;56.70
13992;DHT22;7070;53.586;9.692;2023-06-04T09:30:37;18.90;56.80
13992;DHT22;7070;53.586;9.692;2023-06-04T09:33:07;19.00;57.40
13992;DHT22;7070;53.586;9.692;2023-06-04T09:35:35;19.00;58.00
13992;DHT22;7070;53.586;9.692;2023-06-04T09:38:05;19.10;56.60
13992;DHT22;7070;53.586;9.692;2023-06-04T09:40:35;19.10;56.60
13992;DHT22;7070;53.586;9.692;2023-06-04T09:43:03;19.20;57.10
13992;DHT22;7070;53.586;9.692;2023-06-04T09:45:31;19.20;57.20
13992;DHT22;7070;53.586;9.692;2023-06-04T09:47:58;19.20;56.80
13992;DHT22;7070;53.586;9.692;2023-06-04T09:50:26;19.20;56.50
13992;DHT22;7070;53.586;9.692;2023-06-04T09:52:54;19.20;56.90
13992;DHT22;7070;53.586;9.692;2023-06-04T09:55:22;19.30;57.10
13992;DHT22;7070;53.586;9.692;2023-06-04T09:57:50;19.30;57.40
13992;DHT22;7070;53.586;9.692;2023-06-04T10:00:19;19.40;57.70
13992;DHT22;7070;53.586;9.692;2023-06-04T10:02:48;19.40;57.50
13992;DHT22;7070;53.586;9.692;2023-06-04T10:05:16;19.40;57.30
13992;DHT22;7070;53.586;9.692;2023-06-04T10:07:46;19.50;57.30
13992;DHT22;7070;53.586;9.692;2023-06-04T10:10:16;19.50;56.90
13992;DHT22;7070;53.586;9.692;2023-06-04T10:12:45;19.50;56.80
13992;DHT22;7070;53.586;9.692;2023-06-04T10:15:17;19.60;56.30
13992;DHT22;7070;53.586;9.692;2023-06-04T10:17:47;19.60;56.70
13992;DHT22;7070;53.586;9.692;2023-06-04T10:20:15;19.60;57.00
13992;DHT22;7070;53.586;9.692;2023-06-04T10:22:43;19.60;56.90
13992;DHT22;7070;53.586;9.692;2023-06-04T10:25:11;19.70;57.00
13992;DHT22;7070;53.586;9.692;2023-06-04T10:27:39;19.70;57.10
13992;DHT22;7070;53.586;9.692;2023-06-04T10:30:07;19.70;57.60
13992;DHT22;7070;53.586;9.692;2023-06-04T10:32:35;19.80;57.60
13992;DHT22;7070;53.586;9.692;2023-06-04T10:35:03;19.90;56.90
13992;DHT22;7070;53.586;9.692;2023-06-04T10:37:33;19.90;56.70
13992;DHT22;7070;53.586;9.692;2023-06-04T10:40:00;19.90;56.50
13992;DHT22;7070;53.586;9.692;2023-06-04T10:42:38;20.00;56.30
13992;DHT22;7070;53.586;9.692;2023-06-04T10:45:08;20.00;56.80
13992;DHT22;7070;53.586;9.692;2023-06-04T10:47:36;20.00;56.80
13992;DHT22;7070;53.586;9.692;2023-06-04T10:50:09;20.00;57.10
13992;DHT22;7070;53.586;9.692;2023-06-04T10:52:38;20.10;57.50
13992;DHT22;7070;53.586;9.692;2023-06-04T10:55:07;20.10;57.20
13992;DHT22;7070;53.586;9.692;2023-06-04T10:57:34;20.20;57.40
13992;DHT22;7070;53.586;9.692;2023-06-04T11:00:02;20.20;56.90
13992;DHT22;7070;53.586;9.692;2023-06-04T11:02:33;20.30;57.10
13992;DHT22;7070;53.586;9.692;2023-06-04T11:05:01;20.30;57.40
13992;DHT22;7070;53.586;9.692;2023-06-04T11:07:42;20.40;57.50
13992;DHT22;7070;53.586;9.692;2023-06-04T11:10:11;20.40;57.80
13992;DHT22;7070;53.586;9.692;2023-06-04T11:12:42;20.50;57.50
13992;DHT22;7070;53.586;9.692;2023-06-04T11:15:09;20.60;57.80
13992;DHT22;7070;53.586;9.692;2023-06-04T11:17:38;20.70;57.70
13992;DHT22;7070;53.586;9.692;2023-06-04T11:20:16;20.70;57.40
13992;DHT22;7070;53.586;9.692;2023-06-04T11:22:50;20.80;57.20
13992;DHT22;7070;53.586;9.692;2023-06-04T11:25:17;20.80;57.20
13992;DHT22;7070;53.586;9.692;2023-06-04T11:27:45;20.90;56.60
13992;DHT22;7070;53.586;9.692;2023-06-04T11:30:12;21.00;56.90
13992;DHT22;7070;53.586;9.692;2023-06-04T11:32:41;21.00;55.50
13992;DHT22;7070;53.586;9.692;2023-06-04T11:35:08;21.00;55.60
13992;DHT22;7070;53.586;9.692;2023-06-04T11:37:37;21.10;54.80
13992;DHT22;7070;53.586;9.692;2023-06-04T11:40:15;21.10;54.40
13992;DHT22;7070;53.586;9.692;2023-06-04T11:42:43;21.10;54.30
13992;DHT22;7070;53.586;9.692;2023-06-04T11:45:10;21.10;53.90
13992;DHT22;7070;53.586;9.692;2023-06-04T11:47:37;21.10;53.90
13992;DHT22;7070;53.586;9.692;2023-06-04T11:50:07;21.10;54.60
13992;DHT22;7070;53.586;9.692;2023-06-04T11:52:34;21.10;54.20
13992;DHT22;7070;53.586;9.692;2023-06-04T11:55:01;21.20;54.00
13992;DHT22;7070;53.586;9.692;2023-06-04T11:57:28;21.20;54.10
13992;DHT22;7070;53.586;9.692;2023-06-04T11:59:55;21.20;54.30
13992;DHT22;7070;53.586;9.692;2023-06-04T12:02:22;21.20;54.10
13992;DHT22;7070;53.586;9.692;2023-06-04T12:04:50;21.20;53.60
13992;DHT22;7070;53.586;9.692;2023-06-04T12:07:21;21.30;54.10
13992;DHT22;7070;53.586;9.692;2023-06-04T12:09:49;21.20;53.40
13992;DHT22;7070;53.586;9.692;2023-06-04T12:12:22;21.20;53.00
13992;DHT22;7070;53.586;9.692;2023-06-04T12:14:56;21.20;53.10
13992;DHT22;7070;53.586;9.692;2023-06-04T12:17:24;21.10;53.50
13992;DHT22;7070;53.586;9.692;2023-06-04T12:19:51;21.10;53.70
13992;DHT22;7070;53.586;9.692;2023-06-04T12:22:18;21.10;53.90
13992;DHT22;7070;53.586;9.692;2023-06-04T12:24:48;21.10;54.00
13992;DHT22;7070;53.586;9.692;2023-06-04T12:27:19;21.10;54.00
13992;DHT22;7070;53.586;9.692;2023-06-04T12:29:54;21.20;53.80
13992;DHT22;7070;53.586;9.692;2023-06-04T12:32:21;21.20;54.20
13992;DHT22;7070;53.586;9.692;2023-06-04T12:34:48;21.30;53.90
13992;DHT22;7070;53.586;9.692;2023-06-04T12:37:15;21.20;53.60
13992;DHT22;7070;53.586;9.692;2023-06-04T12:39:42;21.20;53.20
13992;DHT22;7070;53.586;9.692;2023-06-04T12:42:10;21.20;53.70
13992;DHT22;7070;53.586;9.692;2023-06-04T12:44:38;21.20;53.80
13992;DHT22;7070;53.586;9.692;2023-06-04T12:47:05;21.20;53.90
13992;DHT22;7070;53.586;9.692;2023-06-04T12:49:32;21.20;54.00
13992;DHT22;7070;53.586;9.692;2023-06-04T12:51:59;21.30;54.30
13992;DHT22;7070;53.586;9.692;2023-06-04T12:54:26;21.30;54.40
13992;DHT22;7070;53.586;9.692;2023-06-04T12:56:53;21.30;54.70
13992;DHT22;7070;53.586;9.692;2023-06-04T12:59:23;21.40;54.70
13992;DHT22;7070;53.586;9.692;2023-06-04T13:01:50;21.40;54.50
13992;DHT22;7070;53.586;9.692;2023-06-04T13:04:17;21.40;54.30
13992;DHT22;7070;53.586;9.692;2023-06-04T13:06:44;21.40;54.30
13992;DHT22;7070;53.586;9.692;2023-06-04T13:09:13;21.40;54.20
13992;DHT22;7070;53.586;9.692;2023-06-04T13:11:41;21.40;54.10
13992;DHT22;7070;53.586;9.692;2023-06-04T13:14:09;21.40;54.50
13992;DHT22;7070;53.586;9.692;2023-06-04T13:16:38;21.50;54.00
13992;DHT22;7070;53.586;9.692;2023-06-04T13:19:05;21.40;53.80
13992;DHT22;7070;53.586;9.692;2023-06-04T13:21:32;21.40;53.50
13992;DHT22;7070;53.586;9.692;2023-06-04T13:23:59;21.40;53.50
13992;DHT22;7070;53.586;9.692;2023-06-04T13:26:26;21.40;53.20
13992;DHT22;7070;53.586;9.692;2023-06-04T13:28:53;21.50;53.70
13992;DHT22;7070;53.586;9.692;2023-06-04T13:31:19;21.40;53.70
13992;DHT22;7070;53.586;9.692;2023-06-04T13:33:48;21.40;53.80
13992;DHT22;7070;53.586;9.692;2023-06-04T13:36:14;21.30;54.20
13992;DHT22;7070;53.586;9.692;2023-06-04T13:38:41;21.40;54.50
13992;DHT22;7070;53.586;9.692;2023-06-04T13:41:08;21.40;54.20
13992;DHT22;7070;53.586;9.692;2023-06-04T13:43:36;21.40;54.30
13992;DHT22;7070;53.586;9.692;2023-06-04T13:46:03;21.40;54.70
13992;DHT22;7070;53.586;9.692;2023-06-04T13:48:31;21.50;54.90
13992;DHT22;7070;53.586;9.692;2023-06-04T13:50:59;21.50;54.80
13992;DHT22;7070;53.586;9.692;2023-06-04T13:53:26;21.50;54.60
13992;DHT22;7070;53.586;9.692;2023-06-04T13:55:52;21.50;54.20
13992;DHT22;7070;53.586;9.692;2023-06-04T13:58:24;21.50;54.20
13992;DHT22;7070;53.586;9.692;2023-06-04T14:00:51;21.60;54.20
13992;DHT22;7070;53.586;9.692;2023-06-04T14:03:17;21.50;54.20
13992;DHT22;7070;53.586;9.692;2023-06-04T14:05:44;21.50;54.90
13992;DHT22;7070;53.586;9.692;2023-06-04T14:08:12;21.60;55.00
13992;DHT22;7070;53.586;9.692;2023-06-04T14:10:39;21.60;54.90
13992;DHT22;7070;53.586;9.692;2023-06-04T14:13:08;21.60;54.90
13992;DHT22;7070;53.586;9.692;2023-06-04T14:15:36;21.60;54.80
13992;DHT22;7070;53.586;9.692;2023-06-04T14:18:03;21.60;54.90
13992;DHT22;7070;53.586;9.692;2023-06-04T14:20:30;21.60;55.60
13992;DHT22;7070;53.586;9.692;2023-06-04T14:22:57;21.60;55.10
13992;DHT22;7070;53.586;9.692;2023-06-04T14:25:26;21.60;54.90
13992;DHT22;7070;53.586;9.692;2023-06-04T14:27:53;21.50;55.30
13992;DHT22;7070;53.586;9.692;2023-06-04T14:30:20;21.50;55.40
13992;DHT22;7070;53.586;9.692;2023-06-04T14:32:47;21.50;55.30
13992;DHT22;7070;53.586;9.692;2023-06-04T14:35:14;21.50;55.50
13992;DHT22;7070;53.586;9.692;2023-06-04T14:37:41;21.40;55.50
13992;DHT22;7070;53.586;9.692;2023-06-04T14:40:08;21.40;55.00
13992;DHT22;7070;53.586;9.692;2023-06-04T14:42:36;21.40;55.20
13992;DHT22;7070;53.586;9.692;2023-06-04T14:45:04;21.40;55.50
13992;DHT22;7070;53.586;9.692;2023-06-04T14:47:31;21.30;55.50
13992;DHT22;7070;53.586;9.692;2023-06-04T14:49:58;21.30;55.20
13992;DHT22;7070;53.586;9.692;2023-06-04T14:52:25;21.30;55.10
13992;DHT22;7070;53.586;9.692;2023-06-04T14:54:53;21.30;55.30
13992;DHT22;7070;53.586;9.692;2023-06-04T14:57:20;21.20;55.30
13992;DHT22;7070;53.586;9.692;2023-06-04T14:59:49;21.20;55.90
13992;DHT22;7070;53.586;9.692;2023-06-04T15:02:16;21.20;54.90
13992;DHT22;7070;53.586;9.692;2023-06-04T15:04:45;21.10;54.90
13992;DHT22;7070;53.586;9.692;2023-06-04T15:07:12;21.10;55.10
13992;DHT22;7070;53.586;9.692;2023-06-04T15:09:38;21.10;54.90
13992;DHT22;7070;53.586;9.692;2023-06-04T15:12:05;21.10;55.20
13992;DHT22;7070;53.586;9.692;2023-06-04T15:14:32;21.10;55.50
13992;DHT22;7070;53.586;9.692;2023-06-04T15:17:00;21.10;55.30
13992;DHT22;7070;53.586;9.692;2023-06-04T15:19:28;21.10;55.10
13992;DHT22;7070;53.586;9.692;2023-06-04T15:21:54;21.00;54.50
13992;DHT22;7070;53.586;9.692;2023-06-04T15:24:21;21.00;54.90
13992;DHT22;7070;53.586;9.692;2023-06-04T15:26:49;20.90;55.10
13992;DHT22;7070;53.586;9.692;2023-06-04T15:29:16;20.90;55.30
13992;DHT22;7070;53.586;9.692;2023-06-04T15:31:43;20.90;55.40
13992;DHT22;7070;53.586;9.692;2023-06-04T15:34:13;20.90;55.60
13992;DHT22;7070;53.586;9.692;2023-06-04T15:36:39;20.80;55.60
13992;DHT22;7070;53.586;9.692;2023-06-04T15:39:06;20.90;55.90
13992;DHT22;7070;53.586;9.692;2023-06-04T15:41:33;20.80;55.60
13992;DHT22;7070;53.586;9.692;2023-06-04T15:44:00;20.80;55.50
13992;DHT22;7070;53.586;9.692;2023-06-04T15:46:27;20.70;55.80
13992;DHT22;7070;53.586;9.692;2023-06-04T15:48:54;20.70;55.90
13992;DHT22;7070;53.586;9.692;2023-06-04T15:51:22;20.60;56.00
13992;DHT22;7070;53.586;9.692;2023-06-04T15:53:49;20.60;55.90